sensor_id;sensor_type;location;lat;lon;timestamp;P1;durP1;ratioP1;P2;durP2;ratioP2
49223;SDS011;35050;51.316;5.994;2023-08-21T00:01:00;1.45;;;0.70;;
49223;SDS011;35050;51.316;5.994;2023-08-21T00:03:26;0.57;;;0.55;;
49223;SDS011;35050;51.316;5.994;2023-08-21T00:05:52;1.08;;;0.50;;
49223;SDS011;35050;51.316;5.994;2023-08-21T00:08:17;1.52;;;0.50;;
49223;SDS011;35050;51.316;5.994;2023-08-21T00:10:43;3.03;;;0.80;;
49223;SDS011;35050;51.316;5.994;2023-08-21T00:13:09;1.25;;;0.68;;
49223;SDS011;35050;51.316;5.994;2023-08-21T00:15:34;0.98;;;0.52;;
49223;SDS011;35050;51.316;5.994;2023-08-21T00:18:00;2.22;;;0.80;;
49223;SDS011;35050;51.316;5.994;2023-08-21T00:20:26;1.63;;;0.60;;
49223;SDS011;35050;51.316;5.994;2023-08-21T00:22:52;1.70;;;0.63;;
49223;SDS011;35050;51.316;5.994;2023-08-21T00:25:17;1.40;;;0.70;;
49223;SDS011;35050;51.316;5.994;2023-08-21T00:27:43;0.60;;;0.50;;
49223;SDS011;35050;51.316;5.994;2023-08-21T00:30:09;1.38;;;0.60;;
49223;SDS011;35050;51.316;5.994;2023-08-21T00:32:35;1.50;;;0.50;;
49223;SDS011;35050;51.316;5.994;2023-08-21T00:35:01;0.63;;;0.43;;
49223;SDS011;35050;51.316;5.994;2023-08-21T00:37:26;1.90;;;0.63;;
49223;SDS011;35050;51.316;5.994;2023-08-21T00:39:52;1.33;;;0.60;;
49223;SDS011;35050;51.316;5.994;2023-08-21T00:42:18;1.05;;;0.60;;
49223;SDS011;35050;51.316;5.994;2023-08-21T00:44:43;3.70;;;0.80;;
49223;SDS011;35050;51.316;5.994;2023-08-21T00:47:09;0.85;;;0.55;;
49223;SDS011;35050;51.316;5.994;2023-08-21T00:49:34;2.17;;;0.52;;
49223;SDS011;35050;51.316;5.994;2023-08-21T00:52:00;1.70;;;0.90;;
49223;SDS011;35050;51.316;5.994;2023-08-21T00:54:26;2.05;;;0.60;;
49223;SDS011;35050;51.316;5.994;2023-08-21T00:56:52;1.08;;;0.52;;
49223;SDS011;35050;51.316;5.994;2023-08-21T00:59:19;0.93;;;0.40;;
49223;SDS011;35050;51.316;5.994;2023-08-21T01:01:45;1.23;;;0.65;;
49223;SDS011;35050;51.316;5.994;2023-08-21T01:04:11;2.80;;;0.73;;
49223;SDS011;35050;51.316;5.994;2023-08-21T01:06:37;2.22;;;1.00;;
49223;SDS011;35050;51.316;5.994;2023-08-21T01:09:08;1.58;;;0.63;;
49223;SDS011;35050;51.316;5.994;2023-08-21T01:12:03;1.48;;;0.50;;
49223;SDS011;35050;51.316;5.994;2023-08-21T01:17:37;1.35;;;0.47;;
49223;SDS011;35050;51.316;5.994;2023-08-21T01:20:04;1.42;;;0.60;;
49223;SDS011;35050;51.316;5.994;2023-08-21T01:22:37;2.47;;;0.60;;
49223;SDS011;35050;51.316;5.994;2023-08-21T01:25:05;2.80;;;0.75;;
49223;SDS011;35050;51.316;5.994;2023-08-21T01:27:31;2.67;;;0.88;;
49223;SDS011;35050;51.316;5.994;2023-08-21T01:29:58;1.33;;;0.70;;
49223;SDS011;35050;51.316;5.994;2023-08-21T01:32:33;1.75;;;0.73;;
49223;SDS011;35050;51.316;5.994;2023-08-21T01:35:19;1.05;;;0.50;;
49223;SDS011;35050;51.316;5.994;2023-08-21T01:37:46;1.55;;;0.50;;
49223;SDS011;35050;51.316;5.994;2023-08-21T01:40:13;0.73;;;0.60;;
49223;SDS011;35050;51.316;5.994;2023-08-21T01:42:48;0.98;;;0.50;;
49223;SDS011;35050;51.316;5.994;2023-08-21T01:45:14;2.05;;;0.50;;
49223;SDS011;35050;51.316;5.994;2023-08-21T01:47:40;1.42;;;0.50;;
49223;SDS011;35050;51.316;5.994;2023-08-21T01:50:05;0.60;;;0.43;;
49223;SDS011;35050;51.316;5.994;2023-08-21T01:52:31;2.10;;;0.60;;
49223;SDS011;35050;51.316;5.994;2023-08-21T01:54:57;1.15;;;0.60;;
49223;SDS011;35050;51.316;5.994;2023-08-21T01:57:23;1.85;;;0.90;;
49223;SDS011;35050;51.316;5.994;2023-08-21T01:59:49;1.70;;;0.60;;
49223;SDS011;35050;51.316;5.994;2023-08-21T02:02:14;2.83;;;0.57;;
49223;SDS011;35050;51.316;5.994;2023-08-21T02:04:40;1.27;;;0.52;;
49223;SDS011;35050;51.316;5.994;2023-08-21T02:07:06;1.23;;;0.70;;
49223;SDS011;35050;51.316;5.994;2023-08-21T02:09:32;1.50;;;0.63;;
49223;SDS011;35050;51.316;5.994;2023-08-21T02:11:58;1.23;;;0.60;;
49223;SDS011;35050;51.316;5.994;2023-08-21T02:14:24;0.77;;;0.40;;
49223;SDS011;35050;51.316;5.994;2023-08-21T02:16:49;1.88;;;0.57;;
49223;SDS011;35050;51.316;5.994;2023-08-21T02:19:15;2.25;;;0.82;;
49223;SDS011;35050;51.316;5.994;2023-08-21T02:21:41;1.63;;;0.73;;
49223;SDS011;35050;51.316;5.994;2023-08-21T02:24:06;1.48;;;0.60;;
49223;SDS011;35050;51.316;5.994;2023-08-21T02:26:32;2.38;;;0.98;;
49223;SDS011;35050;51.316;5.994;2023-08-21T02:28:58;0.82;;;0.60;;
49223;SDS011;35050;51.316;5.994;2023-08-21T02:31:24;1.77;;;0.70;;
49223;SDS011;35050;51.316;5.994;2023-08-21T02:33:49;1.35;;;0.60;;
49223;SDS011;35050;51.316;5.994;2023-08-21T02:36:15;1.33;;;0.55;;
49223;SDS011;35050;51.316;5.994;2023-08-21T02:38:41;1.80;;;0.60;;
49223;SDS011;35050;51.316;5.994;2023-08-21T02:41:07;2.42;;;0.70;;
49223;SDS011;35050;51.316;5.994;2023-08-21T02:43:33;1.42;;;0.68;;
49223;SDS011;35050;51.316;5.994;2023-08-21T02:45:59;0.95;;;0.52;;
49223;SDS011;35050;51.316;5.994;2023-08-21T02:48:24;0.55;;;0.40;;
49223;SDS011;35050;51.316;5.994;2023-08-21T02:50:50;1.33;;;0.60;;
49223;SDS011;35050;51.316;5.994;2023-08-21T02:53:16;3.13;;;0.50;;
49223;SDS011;35050;51.316;5.994;2023-08-21T02:55:41;0.82;;;0.50;;
49223;SDS011;35050;51.316;5.994;2023-08-21T02:58:07;1.52;;;0.60;;
49223;SDS011;35050;51.316;5.994;2023-08-21T03:00:33;1.20;;;0.60;;
49223;SDS011;35050;51.316;5.994;2023-08-21T03:02:59;0.95;;;0.60;;
49223;SDS011;35050;51.316;5.994;2023-08-21T03:05:25;1.70;;;0.70;;
49223;SDS011;35050;51.316;5.994;2023-08-21T03:07:50;1.33;;;0.60;;
49223;SDS011;35050;51.316;5.994;2023-08-21T03:10:16;1.83;;;0.70;;
49223;SDS011;35050;51.316;5.994;2023-08-21T03:12:42;2.33;;;0.80;;
49223;SDS011;35050;51.316;5.994;2023-08-21T03:15:08;1.98;;;0.60;;
49223;SDS011;35050;51.316;5.994;2023-08-21T03:17:34;1.23;;;0.50;;
49223;SDS011;35050;51.316;5.994;2023-08-21T03:19:59;1.83;;;1.00;;
49223;SDS011;35050;51.316;5.994;2023-08-21T03:22:25;4.40;;;0.80;;
49223;SDS011;35050;51.316;5.994;2023-08-21T03:24:50;0.75;;;0.40;;
49223;SDS011;35050;51.316;5.994;2023-08-21T03:27:16;1.77;;;0.77;;
49223;SDS011;35050;51.316;5.994;2023-08-21T03:29:42;2.38;;;0.70;;
49223;SDS011;35050;51.316;5.994;2023-08-21T03:32:17;0.50;;;0.40;;
49223;SDS011;35050;51.316;5.994;2023-08-21T03:34:44;0.70;;;0.60;;
49223;SDS011;35050;51.316;5.994;2023-08-21T03:37:09;2.30;;;0.82;;
49223;SDS011;35050;51.316;5.994;2023-08-21T03:39:35;2.08;;;0.75;;
49223;SDS011;35050;51.316;5.994;2023-08-21T03:42:01;1.42;;;0.57;;
49223;SDS011;35050;51.316;5.994;2023-08-21T03:44:27;1.20;;;0.80;;
49223;SDS011;35050;51.316;5.994;2023-08-21T03:46:52;1.20;;;0.70;;
49223;SDS011;35050;51.316;5.994;2023-08-21T03:49:18;1.30;;;0.80;;
49223;SDS011;35050;51.316;5.994;2023-08-21T03:51:44;1.52;;;0.70;;
49223;SDS011;35050;51.316;5.994;2023-08-21T03:54:09;1.95;;;0.70;;
49223;SDS011;35050;51.316;5.994;2023-08-21T03:56:35;1.45;;;0.60;;
49223;SDS011;35050;51.316;5.994;2023-08-21T03:59:01;1.13;;;0.70;;
49223;SDS011;35050;51.316;5.994;2023-08-21T04:01:27;0.85;;;0.40;;
49223;SDS011;35050;51.316;5.994;2023-08-21T04:03:52;3.22;;;0.60;;
49223;SDS011;35050;51.316;5.994;2023-08-21T04:06:18;2.10;;;0.70;;
49223;SDS011;35050;51.316;5.994;2023-08-21T04:08:44;0.55;;;0.55;;
49223;SDS011;35050;51.316;5.994;2023-08-21T04:11:10;2.67;;;0.90;;
49223;SDS011;35050;51.316;5.994;2023-08-21T04:13:35;2.63;;;0.70;;
49223;SDS011;35050;51.316;5.994;2023-08-21T04:16:01;1.48;;;0.63;;
49223;SDS011;35050;51.316;5.994;2023-08-21T04:18:26;2.63;;;1.08;;
49223;SDS011;35050;51.316;5.994;2023-08-21T04:20:52;1.73;;;0.93;;
49223;SDS011;35050;51.316;5.994;2023-08-21T04:23:18;2.58;;;0.80;;
49223;SDS011;35050;51.316;5.994;2023-08-21T04:25:43;2.10;;;0.77;;
49223;SDS011;35050;51.316;5.994;2023-08-21T04:28:09;3.00;;;1.15;;
49223;SDS011;35050;51.316;5.994;2023-08-21T04:30:35;3.53;;;0.80;;
49223;SDS011;35050;51.316;5.994;2023-08-21T04:33:01;2.80;;;0.98;;
49223;SDS011;35050;51.316;5.994;2023-08-21T04:35:26;1.88;;;0.93;;
49223;SDS011;35050;51.316;5.994;2023-08-21T04:37:52;2.50;;;0.77;;
49223;SDS011;35050;51.316;5.994;2023-08-21T04:40:17;1.67;;;0.80;;
49223;SDS011;35050;51.316;5.994;2023-08-21T04:42:45;0.73;;;0.52;;
49223;SDS011;35050;51.316;5.994;2023-08-21T04:45:11;1.15;;;0.60;;
49223;SDS011;35050;51.316;5.994;2023-08-21T04:47:37;3.42;;;0.80;;
49223;SDS011;35050;51.316;5.994;2023-08-21T04:50:03;1.85;;;0.68;;
49223;SDS011;35050;51.316;5.994;2023-08-21T04:52:29;2.63;;;0.98;;
49223;SDS011;35050;51.316;5.994;2023-08-21T04:54:54;1.30;;;0.70;;
49223;SDS011;35050;51.316;5.994;2023-08-21T04:57:20;1.58;;;0.75;;
49223;SDS011;35050;51.316;5.994;2023-08-21T04:59:46;2.05;;;1.10;;
49223;SDS011;35050;51.316;5.994;2023-08-21T05:02:12;2.30;;;0.90;;
49223;SDS011;35050;51.316;5.994;2023-08-21T05:04:38;3.45;;;1.17;;
49223;SDS011;35050;51.316;5.994;2023-08-21T05:07:04;3.85;;;1.00;;
49223;SDS011;35050;51.316;5.994;2023-08-21T05:09:31;9.05;;;1.90;;
49223;SDS011;35050;51.316;5.994;2023-08-21T05:11:57;1.60;;;0.85;;
49223;SDS011;35050;51.316;5.994;2023-08-21T05:14:22;2.97;;;0.90;;
49223;SDS011;35050;51.316;5.994;2023-08-21T05:16:49;1.80;;;0.73;;
49223;SDS011;35050;51.316;5.994;2023-08-21T05:19:15;2.65;;;1.05;;
49223;SDS011;35050;51.316;5.994;2023-08-21T05:21:41;1.48;;;1.00;;
49223;SDS011;35050;51.316;5.994;2023-08-21T05:24:07;2.42;;;1.00;;
49223;SDS011;35050;51.316;5.994;2023-08-21T05:26:35;3.33;;;1.10;;
49223;SDS011;35050;51.316;5.994;2023-08-21T05:29:01;2.10;;;1.00;;
49223;SDS011;35050;51.316;5.994;2023-08-21T05:31:27;2.08;;;0.80;;
49223;SDS011;35050;51.316;5.994;2023-08-21T05:33:52;1.92;;;0.73;;
49223;SDS011;35050;51.316;5.994;2023-08-21T05:36:18;2.22;;;0.82;;
49223;SDS011;35050;51.316;5.994;2023-08-21T05:38:44;2.20;;;0.57;;
49223;SDS011;35050;51.316;5.994;2023-08-21T05:41:10;3.25;;;1.02;;
49223;SDS011;35050;51.316;5.994;2023-08-21T05:43:36;2.35;;;0.70;;
49223;SDS011;35050;51.316;5.994;2023-08-21T05:46:05;0.95;;;0.60;;
49223;SDS011;35050;51.316;5.994;2023-08-21T05:48:31;1.52;;;0.68;;
49223;SDS011;35050;51.316;5.994;2023-08-21T05:50:57;1.63;;;0.70;;
49223;SDS011;35050;51.316;5.994;2023-08-21T05:53:22;2.05;;;0.88;;
49223;SDS011;35050;51.316;5.994;2023-08-21T05:55:48;1.10;;;0.70;;
49223;SDS011;35050;51.316;5.994;2023-08-21T05:58:14;1.75;;;0.80;;
49223;SDS011;35050;51.316;5.994;2023-08-21T06:00:40;2.70;;;0.80;;
49223;SDS011;35050;51.316;5.994;2023-08-21T06:03:06;3.60;;;1.20;;
49223;SDS011;35050;51.316;5.994;2023-08-21T06:05:31;2.35;;;0.90;;
49223;SDS011;35050;51.316;5.994;2023-08-21T06:07:57;3.25;;;1.00;;
49223;SDS011;35050;51.316;5.994;2023-08-21T06:10:22;1.52;;;0.70;;
49223;SDS011;35050;51.316;5.994;2023-08-21T06:12:48;2.67;;;0.90;;
49223;SDS011;35050;51.316;5.994;2023-08-21T06:15:14;2.90;;;0.77;;
49223;SDS011;35050;51.316;5.994;2023-08-21T06:17:40;1.92;;;0.80;;
49223;SDS011;35050;51.316;5.994;2023-08-21T06:20:07;2.45;;;1.00;;
49223;SDS011;35050;51.316;5.994;2023-08-21T06:22:36;3.38;;;0.80;;
49223;SDS011;35050;51.316;5.994;2023-08-21T06:25:02;2.05;;;0.90;;
49223;SDS011;35050;51.316;5.994;2023-08-21T06:27:28;1.83;;;0.85;;
49223;SDS011;35050;51.316;5.994;2023-08-21T06:29:54;2.35;;;0.80;;
49223;SDS011;35050;51.316;5.994;2023-08-21T06:32:19;2.33;;;0.95;;
49223;SDS011;35050;51.316;5.994;2023-08-21T06:34:45;2.15;;;1.10;;
49223;SDS011;35050;51.316;5.994;2023-08-21T06:37:11;2.50;;;1.00;;
49223;SDS011;35050;51.316;5.994;2023-08-21T06:39:37;2.03;;;0.93;;
49223;SDS011;35050;51.316;5.994;2023-08-21T06:42:03;1.48;;;0.80;;
49223;SDS011;35050;51.316;5.994;2023-08-21T06:44:29;2.17;;;1.00;;
49223;SDS011;35050;51.316;5.994;2023-08-21T06:46:55;1.95;;;0.93;;
49223;SDS011;35050;51.316;5.994;2023-08-21T06:49:20;1.17;;;0.77;;
49223;SDS011;35050;51.316;5.994;2023-08-21T06:51:46;3.17;;;0.77;;
49223;SDS011;35050;51.316;5.994;2023-08-21T06:54:12;1.63;;;0.77;;
49223;SDS011;35050;51.316;5.994;2023-08-21T06:56:37;4.47;;;1.10;;
49223;SDS011;35050;51.316;5.994;2023-08-21T06:59:03;2.67;;;1.10;;
49223;SDS011;35050;51.316;5.994;2023-08-21T07:01:29;1.60;;;0.90;;
49223;SDS011;35050;51.316;5.994;2023-08-21T07:03:54;2.28;;;0.95;;
49223;SDS011;35050;51.316;5.994;2023-08-21T07:06:20;2.10;;;0.80;;
49223;SDS011;35050;51.316;5.994;2023-08-21T07:08:46;1.75;;;1.00;;
49223;SDS011;35050;51.316;5.994;2023-08-21T07:11:11;2.10;;;1.00;;
49223;SDS011;35050;51.316;5.994;2023-08-21T07:13:37;1.48;;;0.90;;
49223;SDS011;35050;51.316;5.994;2023-08-21T07:16:04;2.35;;;1.10;;
49223;SDS011;35050;51.316;5.994;2023-08-21T07:18:33;4.35;;;1.02;;
49223;SDS011;35050;51.316;5.994;2023-08-21T07:21:00;2.72;;;1.15;;
49223;SDS011;35050;51.316;5.994;2023-08-21T07:23:29;3.45;;;1.17;;
49223;SDS011;35050;51.316;5.994;2023-08-21T07:25:56;0.90;;;0.73;;
49223;SDS011;35050;51.316;5.994;2023-08-21T07:28:23;1.60;;;0.80;;
49223;SDS011;35050;51.316;5.994;2023-08-21T07:30:53;2.85;;;0.70;;
49223;SDS011;35050;51.316;5.994;2023-08-21T07:33:23;3.00;;;0.88;;
49223;SDS011;35050;51.316;5.994;2023-08-21T07:38:30;4.95;;;1.85;;
49223;SDS011;35050;51.316;5.994;2023-08-21T07:41:09;4.22;;;1.70;;
49223;SDS011;35050;51.316;5.994;2023-08-21T07:43:36;2.65;;;1.50;;
49223;SDS011;35050;51.316;5.994;2023-08-21T07:46:06;3.50;;;1.77;;
49223;SDS011;35050;51.316;5.994;2023-08-21T07:48:34;4.60;;;2.17;;
49223;SDS011;35050;51.316;5.994;2023-08-21T07:51:00;3.92;;;1.60;;
49223;SDS011;35050;51.316;5.994;2023-08-21T07:53:26;3.28;;;1.55;;
49223;SDS011;35050;51.316;5.994;2023-08-21T07:55:52;4.03;;;1.70;;
49223;SDS011;35050;51.316;5.994;2023-08-21T07:58:18;1.90;;;1.15;;
49223;SDS011;35050;51.316;5.994;2023-08-21T08:00:43;3.00;;;1.30;;
49223;SDS011;35050;51.316;5.994;2023-08-21T08:03:09;3.15;;;1.30;;
49223;SDS011;35050;51.316;5.994;2023-08-21T08:05:35;3.20;;;1.83;;
49223;SDS011;35050;51.316;5.994;2023-08-21T08:08:01;3.05;;;1.20;;
49223;SDS011;35050;51.316;5.994;2023-08-21T08:10:27;3.20;;;1.52;;
49223;SDS011;35050;51.316;5.994;2023-08-21T08:12:53;3.53;;;1.88;;
49223;SDS011;35050;51.316;5.994;2023-08-21T08:15:19;4.57;;;1.50;;
49223;SDS011;35050;51.316;5.994;2023-08-21T08:17:45;3.35;;;1.40;;
49223;SDS011;35050;51.316;5.994;2023-08-21T08:20:14;5.28;;;1.35;;
49223;SDS011;35050;51.316;5.994;2023-08-21T08:22:40;4.50;;;1.35;;
49223;SDS011;35050;51.316;5.994;2023-08-21T08:25:06;3.72;;;1.50;;
49223;SDS011;35050;51.316;5.994;2023-08-21T08:27:32;4.20;;;1.52;;
49223;SDS011;35050;51.316;5.994;2023-08-21T08:29:58;2.80;;;1.13;;
49223;SDS011;35050;51.316;5.994;2023-08-21T08:32:25;2.33;;;0.90;;
49223;SDS011;35050;51.316;5.994;2023-08-21T08:34:51;2.85;;;1.23;;
49223;SDS011;35050;51.316;5.994;2023-08-21T08:37:17;3.10;;;1.30;;
49223;SDS011;35050;51.316;5.994;2023-08-21T08:39:43;2.47;;;1.30;;
49223;SDS011;35050;51.316;5.994;2023-08-21T08:42:10;1.48;;;0.82;;
49223;SDS011;35050;51.316;5.994;2023-08-21T08:44:37;4.93;;;1.40;;
49223;SDS011;35050;51.316;5.994;2023-08-21T08:47:03;4.60;;;1.02;;
49223;SDS011;35050;51.316;5.994;2023-08-21T08:49:29;2.85;;;1.15;;
49223;SDS011;35050;51.316;5.994;2023-08-21T08:51:56;3.00;;;1.10;;
49223;SDS011;35050;51.316;5.994;2023-08-21T08:54:23;3.05;;;1.20;;
49223;SDS011;35050;51.316;5.994;2023-08-21T08:56:50;2.63;;;1.10;;
49223;SDS011;35050;51.316;5.994;2023-08-21T08:59:16;1.88;;;0.70;;
49223;SDS011;35050;51.316;5.994;2023-08-21T09:01:42;1.48;;;0.82;;
49223;SDS011;35050;51.316;5.994;2023-08-21T09:04:08;5.63;;;0.90;;
49223;SDS011;35050;51.316;5.994;2023-08-21T09:06:35;3.40;;;1.08;;
49223;SDS011;35050;51.316;5.994;2023-08-21T09:09:01;4.18;;;1.42;;
49223;SDS011;35050;51.316;5.994;2023-08-21T09:11:27;4.00;;;1.13;;
49223;SDS011;35050;51.316;5.994;2023-08-21T09:13:53;1.30;;;0.60;;
49223;SDS011;35050;51.316;5.994;2023-08-21T09:16:20;2.28;;;0.90;;
49223;SDS011;35050;51.316;5.994;2023-08-21T09:18:50;2.35;;;0.70;;
49223;SDS011;35050;51.316;5.994;2023-08-21T09:21:22;3.08;;;0.90;;
49223;SDS011;35050;51.316;5.994;2023-08-21T09:23:50;1.52;;;0.73;;
49223;SDS011;35050;51.316;5.994;2023-08-21T09:26:24;3.58;;;1.35;;
49223;SDS011;35050;51.316;5.994;2023-08-21T09:28:51;3.65;;;0.95;;
49223;SDS011;35050;51.316;5.994;2023-08-21T09:31:29;1.70;;;0.80;;
49223;SDS011;35050;51.316;5.994;2023-08-21T09:33:56;2.47;;;1.00;;
49223;SDS011;35050;51.316;5.994;2023-08-21T09:36:29;2.92;;;0.82;;
49223;SDS011;35050;51.316;5.994;2023-08-21T09:38:55;3.85;;;1.10;;
49223;SDS011;35050;51.316;5.994;2023-08-21T09:41:22;3.95;;;1.00;;
49223;SDS011;35050;51.316;5.994;2023-08-21T09:43:48;1.60;;;0.80;;
49223;SDS011;35050;51.316;5.994;2023-08-21T09:46:14;3.17;;;1.10;;
49223;SDS011;35050;51.316;5.994;2023-08-21T09:48:58;1.83;;;0.90;;
49223;SDS011;35050;51.316;5.994;2023-08-21T09:51:25;1.92;;;1.20;;
49223;SDS011;35050;51.316;5.994;2023-08-21T09:53:52;3.22;;;1.00;;
49223;SDS011;35050;51.316;5.994;2023-08-21T09:56:20;2.78;;;1.13;;
49223;SDS011;35050;51.316;5.994;2023-08-21T09:58:49;4.00;;;0.90;;
49223;SDS011;35050;51.316;5.994;2023-08-21T10:01:16;2.42;;;0.80;;
49223;SDS011;35050;51.316;5.994;2023-08-21T10:03:45;2.70;;;1.00;;
49223;SDS011;35050;51.316;5.994;2023-08-21T10:06:13;3.03;;;1.02;;
49223;SDS011;35050;51.316;5.994;2023-08-21T10:08:43;2.90;;;0.90;;
49223;SDS011;35050;51.316;5.994;2023-08-21T10:11:13;2.03;;;0.80;;
49223;SDS011;35050;51.316;5.994;2023-08-21T10:13:39;3.75;;;1.38;;
49223;SDS011;35050;51.316;5.994;2023-08-21T10:16:05;2.70;;;1.00;;
49223;SDS011;35050;51.316;5.994;2023-08-21T10:18:34;2.72;;;1.00;;
49223;SDS011;35050;51.316;5.994;2023-08-21T10:21:13;2.67;;;0.90;;
49223;SDS011;35050;51.316;5.994;2023-08-21T10:23:42;1.83;;;0.82;;
49223;SDS011;35050;51.316;5.994;2023-08-21T10:26:15;6.50;;;1.40;;
49223;SDS011;35050;51.316;5.994;2023-08-21T10:28:48;7.20;;;1.70;;
49223;SDS011;35050;51.316;5.994;2023-08-21T10:34:07;2.67;;;1.05;;
49223;SDS011;35050;51.316;5.994;2023-08-21T10:39:03;2.28;;;1.10;;
49223;SDS011;35050;51.316;5.994;2023-08-21T10:41:29;3.67;;;1.13;;
49223;SDS011;35050;51.316;5.994;2023-08-21T10:43:55;3.50;;;0.95;;
49223;SDS011;35050;51.316;5.994;2023-08-21T10:46:21;2.58;;;1.05;;
49223;SDS011;35050;51.316;5.994;2023-08-21T10:48:46;2.85;;;0.95;;
49223;SDS011;35050;51.316;5.994;2023-08-21T10:51:12;2.05;;;1.00;;
49223;SDS011;35050;51.316;5.994;2023-08-21T10:53:38;3.58;;;1.05;;
49223;SDS011;35050;51.316;5.994;2023-08-21T10:56:06;2.03;;;0.98;;
49223;SDS011;35050;51.316;5.994;2023-08-21T10:58:38;3.25;;;1.33;;
49223;SDS011;35050;51.316;5.994;2023-08-21T11:01:06;0.93;;;0.80;;
49223;SDS011;35050;51.316;5.994;2023-08-21T11:03:32;4.20;;;1.75;;
49223;SDS011;35050;51.316;5.994;2023-08-21T11:06:04;3.63;;;0.90;;
49223;SDS011;35050;51.316;5.994;2023-08-21T11:08:32;3.50;;;0.95;;
49223;SDS011;35050;51.316;5.994;2023-08-21T11:10:59;3.45;;;1.20;;
49223;SDS011;35050;51.316;5.994;2023-08-21T11:13:28;2.72;;;0.80;;
49223;SDS011;35050;51.316;5.994;2023-08-21T11:15:58;1.73;;;0.80;;
49223;SDS011;35050;51.316;5.994;2023-08-21T11:21:10;7.10;;;1.10;;
49223;SDS011;35050;51.316;5.994;2023-08-21T11:23:40;3.97;;;1.08;;
49223;SDS011;35050;51.316;5.994;2023-08-21T11:26:10;3.10;;;1.10;;
49223;SDS011;35050;51.316;5.994;2023-08-21T11:28:39;3.33;;;1.10;;
49223;SDS011;35050;51.316;5.994;2023-08-21T11:31:05;3.80;;;1.00;;
49223;SDS011;35050;51.316;5.994;2023-08-21T11:33:31;3.05;;;1.05;;
49223;SDS011;35050;51.316;5.994;2023-08-21T11:35:58;1.92;;;0.73;;
49223;SDS011;35050;51.316;5.994;2023-08-21T11:38:26;2.25;;;0.80;;
49223;SDS011;35050;51.316;5.994;2023-08-21T11:40:55;2.42;;;1.17;;
49223;SDS011;35050;51.316;5.994;2023-08-21T11:43:44;7.28;;;1.05;;
49223;SDS011;35050;51.316;5.994;2023-08-21T11:46:09;3.45;;;1.48;;
49223;SDS011;35050;51.316;5.994;2023-08-21T11:48:39;2.10;;;0.85;;
49223;SDS011;35050;51.316;5.994;2023-08-21T11:51:06;3.25;;;0.80;;
49223;SDS011;35050;51.316;5.994;2023-08-21T11:53:40;1.63;;;0.90;;
49223;SDS011;35050;51.316;5.994;2023-08-21T11:56:10;2.35;;;1.00;;
49223;SDS011;35050;51.316;5.994;2023-08-21T11:58:38;1.75;;;0.98;;
49223;SDS011;35050;51.316;5.994;2023-08-21T12:03:39;2.78;;;1.00;;
49223;SDS011;35050;51.316;5.994;2023-08-21T12:06:08;2.55;;;0.98;;
49223;SDS011;35050;51.316;5.994;2023-08-21T12:08:35;2.80;;;0.90;;
49223;SDS011;35050;51.316;5.994;2023-08-21T12:11:00;1.48;;;0.90;;
49223;SDS011;35050;51.316;5.994;2023-08-21T12:13:26;1.15;;;0.77;;
49223;SDS011;35050;51.316;5.994;2023-08-21T12:15:52;2.05;;;0.90;;
49223;SDS011;35050;51.316;5.994;2023-08-21T12:18:18;2.03;;;0.77;;
49223;SDS011;35050;51.316;5.994;2023-08-21T12:20:43;1.58;;;0.80;;
49223;SDS011;35050;51.316;5.994;2023-08-21T12:23:09;2.92;;;0.85;;
49223;SDS011;35050;51.316;5.994;2023-08-21T12:25:35;2.85;;;0.90;;
49223;SDS011;35050;51.316;5.994;2023-08-21T12:28:00;1.77;;;0.95;;
49223;SDS011;35050;51.316;5.994;2023-08-21T12:30:26;1.63;;;0.90;;
49223;SDS011;35050;51.316;5.994;2023-08-21T12:32:51;2.53;;;0.95;;
49223;SDS011;35050;51.316;5.994;2023-08-21T12:35:17;2.10;;;1.02;;
49223;SDS011;35050;51.316;5.994;2023-08-21T12:37:43;2.13;;;0.93;;
49223;SDS011;35050;51.316;5.994;2023-08-21T12:40:08;3.60;;;0.80;;
49223;SDS011;35050;51.316;5.994;2023-08-21T12:42:34;2.20;;;1.05;;
49223;SDS011;35050;51.316;5.994;2023-08-21T12:45:00;2.03;;;0.90;;
49223;SDS011;35050;51.316;5.994;2023-08-21T12:47:25;2.00;;;1.13;;
49223;SDS011;35050;51.316;5.994;2023-08-21T12:49:51;2.60;;;1.10;;
49223;SDS011;35050;51.316;5.994;2023-08-21T12:52:17;1.23;;;0.70;;
49223;SDS011;35050;51.316;5.994;2023-08-21T12:54:42;2.53;;;1.10;;
49223;SDS011;35050;51.316;5.994;2023-08-21T12:57:08;1.98;;;1.00;;
49223;SDS011;35050;51.316;5.994;2023-08-21T12:59:36;3.17;;;1.25;;
49223;SDS011;35050;51.316;5.994;2023-08-21T13:02:02;2.28;;;0.90;;
49223;SDS011;35050;51.316;5.994;2023-08-21T13:04:28;2.80;;;0.98;;
49223;SDS011;35050;51.316;5.994;2023-08-21T13:06:54;2.97;;;1.10;;
49223;SDS011;35050;51.316;5.994;2023-08-21T13:09:20;9.48;;;1.30;;
49223;SDS011;35050;51.316;5.994;2023-08-21T13:11:45;2.88;;;1.10;;
49223;SDS011;35050;51.316;5.994;2023-08-21T13:14:11;2.05;;;0.80;;
49223;SDS011;35050;51.316;5.994;2023-08-21T13:16:37;3.22;;;1.13;;
49223;SDS011;35050;51.316;5.994;2023-08-21T13:19:02;2.15;;;1.10;;
49223;SDS011;35050;51.316;5.994;2023-08-21T13:21:28;2.97;;;0.90;;
49223;SDS011;35050;51.316;5.994;2023-08-21T13:23:53;1.10;;;0.77;;
49223;SDS011;35050;51.316;5.994;2023-08-21T13:26:19;2.05;;;0.93;;
49223;SDS011;35050;51.316;5.994;2023-08-21T13:28:45;3.42;;;1.10;;
49223;SDS011;35050;51.316;5.994;2023-08-21T13:31:11;3.15;;;1.10;;
49223;SDS011;35050;51.316;5.994;2023-08-21T13:33:46;1.52;;;0.70;;
49223;SDS011;35050;51.316;5.994;2023-08-21T13:36:12;2.17;;;1.02;;
49223;SDS011;35050;51.316;5.994;2023-08-21T13:38:39;2.65;;;0.93;;
49223;SDS011;35050;51.316;5.994;2023-08-21T13:41:05;1.92;;;1.30;;
49223;SDS011;35050;51.316;5.994;2023-08-21T13:43:31;1.83;;;1.10;;
49223;SDS011;35050;51.316;5.994;2023-08-21T13:45:57;1.42;;;1.05;;
49223;SDS011;35050;51.316;5.994;2023-08-21T13:48:23;3.20;;;1.00;;
49223;SDS011;35050;51.316;5.994;2023-08-21T13:50:48;1.95;;;0.75;;
49223;SDS011;35050;51.316;5.994;2023-08-21T13:53:14;2.90;;;0.77;;
49223;SDS011;35050;51.316;5.994;2023-08-21T13:55:39;1.50;;;0.77;;
49223;SDS011;35050;51.316;5.994;2023-08-21T13:58:05;1.67;;;0.85;;
49223;SDS011;35050;51.316;5.994;2023-08-21T14:00:31;1.33;;;1.00;;
49223;SDS011;35050;51.316;5.994;2023-08-21T14:02:56;0.90;;;0.60;;
49223;SDS011;35050;51.316;5.994;2023-08-21T14:05:22;1.50;;;0.85;;
49223;SDS011;35050;51.316;5.994;2023-08-21T14:07:48;1.27;;;0.80;;
49223;SDS011;35050;51.316;5.994;2023-08-21T14:10:14;1.40;;;0.80;;
49223;SDS011;35050;51.316;5.994;2023-08-21T14:12:39;1.85;;;0.90;;
49223;SDS011;35050;51.316;5.994;2023-08-21T14:15:05;1.98;;;0.80;;
49223;SDS011;35050;51.316;5.994;2023-08-21T14:17:31;2.05;;;1.17;;
49223;SDS011;35050;51.316;5.994;2023-08-21T14:19:57;1.90;;;0.80;;
49223;SDS011;35050;51.316;5.994;2023-08-21T14:22:23;3.53;;;1.08;;
49223;SDS011;35050;51.316;5.994;2023-08-21T14:24:49;1.48;;;0.85;;
49223;SDS011;35050;51.316;5.994;2023-08-21T14:27:15;2.42;;;0.80;;
49223;SDS011;35050;51.316;5.994;2023-08-21T14:29:42;3.10;;;0.98;;
49223;SDS011;35050;51.316;5.994;2023-08-21T14:32:08;1.35;;;0.88;;
49223;SDS011;35050;51.316;5.994;2023-08-21T14:34:35;2.10;;;0.80;;
49223;SDS011;35050;51.316;5.994;2023-08-21T14:37:00;1.73;;;0.85;;
49223;SDS011;35050;51.316;5.994;2023-08-21T14:39:29;3.20;;;1.00;;
49223;SDS011;35050;51.316;5.994;2023-08-21T14:41:55;2.28;;;0.88;;
49223;SDS011;35050;51.316;5.994;2023-08-21T14:44:21;1.55;;;0.93;;
49223;SDS011;35050;51.316;5.994;2023-08-21T14:46:47;2.13;;;1.05;;
49223;SDS011;35050;51.316;5.994;2023-08-21T14:49:13;1.10;;;0.80;;
49223;SDS011;35050;51.316;5.994;2023-08-21T14:51:38;1.15;;;0.80;;
49223;SDS011;35050;51.316;5.994;2023-08-21T14:54:04;1.77;;;0.80;;
49223;SDS011;35050;51.316;5.994;2023-08-21T14:56:30;1.85;;;0.70;;
49223;SDS011;35050;51.316;5.994;2023-08-21T14:58:56;1.95;;;0.77;;
49223;SDS011;35050;51.316;5.994;2023-08-21T15:01:21;2.20;;;0.98;;